sensor_id;sensor_type;location;lat;lon;timestamp;P1;durP1;ratioP1;P2;durP2;ratioP2
1344;SDS011;15375;48.540;9.268;2023-06-24T00:02:13;9.20;;;8.03;;
1344;SDS011;15375;48.540;9.268;2023-06-24T00:04:38;8.13;;;7.33;;
1344;SDS011;15375;48.540;9.268;2023-06-24T00:07:04;8.37;;;7.57;;
1344;SDS011;15375;48.540;9.268;2023-06-24T00:09:30;8.40;;;7.50;;
1344;SDS011;15375;48.540;9.268;2023-06-24T00:11:56;6.97;;;6.30;;
1344;SDS011;15375;48.540;9.268;2023-06-24T00:14:23;7.50;;;6.47;;
1344;SDS011;15375;48.540;9.268;2023-06-24T00:16:51;8.73;;;6.27;;
1344;SDS011;15375;48.540;9.268;2023-06-24T00:19:20;8.67;;;7.03;;
1344;SDS011;15375;48.540;9.268;2023-06-24T00:21:49;7.93;;;6.73;;
1344;SDS011;15375;48.540;9.268;2023-06-24T00:24:21;8.27;;;7.50;;
1344;SDS011;15375;48.540;9.268;2023-06-24T00:26:50;7.83;;;6.90;;
1344;SDS011;15375;48.540;9.268;2023-06-24T00:29:18;12.70;;;7.20;;
1344;SDS011;15375;48.540;9.268;2023-06-24T00:31:44;7.20;;;6.60;;
1344;SDS011;15375;48.540;9.268;2023-06-24T00:34:09;7.87;;;7.07;;
1344;SDS011;15375;48.540;9.268;2023-06-24T00:36:34;7.67;;;7.00;;
1344;SDS011;15375;48.540;9.268;2023-06-24T00:39:03;8.23;;;6.90;;
1344;SDS011;15375;48.540;9.268;2023-06-24T00:41:29;8.10;;;7.20;;
1344;SDS011;15375;48.540;9.268;2023-06-24T00:43:56;7.67;;;6.97;;
1344;SDS011;15375;48.540;9.268;2023-06-24T00:46:22;8.03;;;7.03;;
1344;SDS011;15375;48.540;9.268;2023-06-24T00:48:50;7.30;;;6.70;;
1344;SDS011;15375;48.540;9.268;2023-06-24T00:51:17;7.97;;;6.90;;
1344;SDS011;15375;48.540;9.268;2023-06-24T00:53:46;8.03;;;7.23;;
1344;SDS011;15375;48.540;9.268;2023-06-24T00:56:12;7.37;;;6.70;;
1344;SDS011;15375;48.540;9.268;2023-06-24T00:58:39;7.07;;;6.37;;
1344;SDS011;15375;48.540;9.268;2023-06-24T01:01:07;7.80;;;7.10;;
1344;SDS011;15375;48.540;9.268;2023-06-24T01:03:33;6.97;;;6.37;;
1344;SDS011;15375;48.540;9.268;2023-06-24T01:06:02;8.10;;;6.47;;
1344;SDS011;15375;48.540;9.268;2023-06-24T01:08:27;8.53;;;6.63;;
1344;SDS011;15375;48.540;9.268;2023-06-24T01:10:53;7.07;;;6.33;;
1344;SDS011;15375;48.540;9.268;2023-06-24T01:13:19;7.43;;;6.57;;
1344;SDS011;15375;48.540;9.268;2023-06-24T01:15:45;8.40;;;6.40;;
1344;SDS011;15375;48.540;9.268;2023-06-24T01:18:13;6.97;;;6.37;;
1344;SDS011;15375;48.540;9.268;2023-06-24T01:20:49;7.97;;;7.00;;
1344;SDS011;15375;48.540;9.268;2023-06-24T01:29:14;7.00;;;6.40;;
1344;SDS011;15375;48.540;9.268;2023-06-24T01:31:44;8.30;;;7.17;;
1344;SDS011;15375;48.540;9.268;2023-06-24T01:36:50;7.87;;;7.07;;
1344;SDS011;15375;48.540;9.268;2023-06-24T01:39:39;7.03;;;6.37;;
1344;SDS011;15375;48.540;9.268;2023-06-24T01:42:11;8.23;;;5.67;;
1344;SDS011;15375;48.540;9.268;2023-06-24T01:44:41;6.73;;;6.13;;
1344;SDS011;15375;48.540;9.268;2023-06-24T01:47:09;7.97;;;7.10;;
1344;SDS011;15375;48.540;9.268;2023-06-24T01:49:38;7.83;;;6.90;;
1344;SDS011;15375;48.540;9.268;2023-06-24T01:52:07;8.10;;;6.83;;
1344;SDS011;15375;48.540;9.268;2023-06-24T01:54:33;6.17;;;5.57;;
1344;SDS011;15375;48.540;9.268;2023-06-24T01:57:00;7.13;;;6.53;;
1344;SDS011;15375;48.540;9.268;2023-06-24T01:59:29;8.13;;;7.43;;
1344;SDS011;15375;48.540;9.268;2023-06-24T02:01:56;6.47;;;5.97;;
1344;SDS011;15375;48.540;9.268;2023-06-24T02:04:23;7.80;;;6.70;;
1344;SDS011;15375;48.540;9.268;2023-06-24T02:06:49;10.07;;;6.77;;
1344;SDS011;15375;48.540;9.268;2023-06-24T02:09:18;8.07;;;6.40;;
1344;SDS011;15375;48.540;9.268;2023-06-24T02:11:45;9.30;;;6.70;;
1344;SDS011;15375;48.540;9.268;2023-06-24T02:14:12;9.30;;;6.47;;
1344;SDS011;15375;48.540;9.268;2023-06-24T02:16:39;6.73;;;6.10;;
1344;SDS011;15375;48.540;9.268;2023-06-24T02:19:07;13.60;;;7.63;;
1344;SDS011;15375;48.540;9.268;2023-06-24T02:21:34;7.30;;;6.60;;
1344;SDS011;15375;48.540;9.268;2023-06-24T02:24:01;8.13;;;7.33;;
1344;SDS011;15375;48.540;9.268;2023-06-24T02:26:27;7.63;;;6.93;;
1344;SDS011;15375;48.540;9.268;2023-06-24T02:28:53;6.97;;;5.97;;
1344;SDS011;15375;48.540;9.268;2023-06-24T02:31:19;6.83;;;6.17;;
1344;SDS011;15375;48.540;9.268;2023-06-24T02:33:45;7.43;;;6.73;;
1344;SDS011;15375;48.540;9.268;2023-06-24T02:36:11;7.73;;;6.97;;
1344;SDS011;15375;48.540;9.268;2023-06-24T02:38:36;9.20;;;6.40;;
1344;SDS011;15375;48.540;9.268;2023-06-24T02:41:02;7.30;;;6.50;;
1344;SDS011;15375;48.540;9.268;2023-06-24T02:43:29;7.03;;;6.43;;
1344;SDS011;15375;48.540;9.268;2023-06-24T02:45:55;7.43;;;6.80;;
1344;SDS011;15375;48.540;9.268;2023-06-24T02:48:21;8.50;;;7.67;;
1344;SDS011;15375;48.540;9.268;2023-06-24T02:50:47;8.23;;;7.03;;
1344;SDS011;15375;48.540;9.268;2023-06-24T02:53:14;8.50;;;7.40;;
1344;SDS011;15375;48.540;9.268;2023-06-24T02:55:42;8.10;;;6.80;;
1344;SDS011;15375;48.540;9.268;2023-06-24T02:58:09;8.23;;;7.40;;
1344;SDS011;15375;48.540;9.268;2023-06-24T03:00:36;11.07;;;6.27;;
1344;SDS011;15375;48.540;9.268;2023-06-24T03:03:03;8.30;;;6.93;;
1344;SDS011;15375;48.540;9.268;2023-06-24T03:05:30;6.87;;;6.20;;
1344;SDS011;15375;48.540;9.268;2023-06-24T03:07:57;7.90;;;7.10;;
1344;SDS011;15375;48.540;9.268;2023-06-24T03:10:23;7.50;;;6.80;;
1344;SDS011;15375;48.540;9.268;2023-06-24T03:12:49;8.33;;;6.70;;
1344;SDS011;15375;48.540;9.268;2023-06-24T03:15:15;6.97;;;6.23;;
1344;SDS011;15375;48.540;9.268;2023-06-24T03:17:40;7.13;;;6.23;;
1344;SDS011;15375;48.540;9.268;2023-06-24T03:20:06;7.73;;;7.03;;
1344;SDS011;15375;48.540;9.268;2023-06-24T03:22:32;8.10;;;6.40;;
1344;SDS011;15375;48.540;9.268;2023-06-24T03:24:58;7.17;;;6.47;;
1344;SDS011;15375;48.540;9.268;2023-06-24T03:27:23;8.60;;;7.60;;
1344;SDS011;15375;48.540;9.268;2023-06-24T03:29:49;9.47;;;7.67;;
1344;SDS011;15375;48.540;9.268;2023-06-24T03:32:14;13.30;;;6.73;;
1344;SDS011;15375;48.540;9.268;2023-06-24T03:34:40;7.13;;;6.33;;
1344;SDS011;15375;48.540;9.268;2023-06-24T03:37:05;8.33;;;7.53;;
1344;SDS011;15375;48.540;9.268;2023-06-24T03:39:31;8.67;;;7.87;;
1344;SDS011;15375;48.540;9.268;2023-06-24T03:41:56;8.20;;;7.10;;
1344;SDS011;15375;48.540;9.268;2023-06-24T03:44:22;7.00;;;6.40;;
1344;SDS011;15375;48.540;9.268;2023-06-24T03:46:47;16.13;;;7.43;;
1344;SDS011;15375;48.540;9.268;2023-06-24T03:49:12;9.80;;;7.73;;
1344;SDS011;15375;48.540;9.268;2023-06-24T03:51:38;9.03;;;7.63;;
1344;SDS011;15375;48.540;9.268;2023-06-24T03:54:03;11.80;;;7.70;;
1344;SDS011;15375;48.540;9.268;2023-06-24T03:56:28;8.50;;;7.70;;
1344;SDS011;15375;48.540;9.268;2023-06-24T03:58:54;8.57;;;7.77;;
1344;SDS011;15375;48.540;9.268;2023-06-24T04:01:19;7.90;;;6.87;;
1344;SDS011;15375;48.540;9.268;2023-06-24T04:03:48;9.10;;;7.60;;
1344;SDS011;15375;48.540;9.268;2023-06-24T04:06:13;11.23;;;7.90;;
1344;SDS011;15375;48.540;9.268;2023-06-24T04:08:38;7.70;;;6.90;;
1344;SDS011;15375;48.540;9.268;2023-06-24T04:11:04;12.57;;;7.60;;
1344;SDS011;15375;48.540;9.268;2023-06-24T04:13:31;12.60;;;10.20;;
1344;SDS011;15375;48.540;9.268;2023-06-24T04:15:59;8.63;;;7.83;;
1344;SDS011;15375;48.540;9.268;2023-06-24T04:18:25;8.90;;;8.10;;
1344;SDS011;15375;48.540;9.268;2023-06-24T04:20:50;11.20;;;8.07;;
1344;SDS011;15375;48.540;9.268;2023-06-24T04:23:15;10.20;;;8.00;;
1344;SDS011;15375;48.540;9.268;2023-06-24T04:25:41;8.03;;;7.33;;
1344;SDS011;15375;48.540;9.268;2023-06-24T04:28:07;9.00;;;6.70;;
1344;SDS011;15375;48.540;9.268;2023-06-24T04:30:32;10.10;;;6.93;;
1344;SDS011;15375;48.540;9.268;2023-06-24T04:33:00;7.93;;;6.60;;
1344;SDS011;15375;48.540;9.268;2023-06-24T04:35:26;9.47;;;6.83;;
1344;SDS011;15375;48.540;9.268;2023-06-24T04:37:51;7.00;;;6.30;;
1344;SDS011;15375;48.540;9.268;2023-06-24T04:40:17;12.80;;;8.37;;
1344;SDS011;15375;48.540;9.268;2023-06-24T04:42:43;10.83;;;8.77;;
1344;SDS011;15375;48.540;9.268;2023-06-24T04:45:09;6.90;;;6.30;;
1344;SDS011;15375;48.540;9.268;2023-06-24T04:47:35;7.73;;;6.40;;
1344;SDS011;15375;48.540;9.268;2023-06-24T04:50:01;10.20;;;8.77;;
1344;SDS011;15375;48.540;9.268;2023-06-24T04:52:26;9.20;;;8.30;;
1344;SDS011;15375;48.540;9.268;2023-06-24T04:54:52;9.73;;;8.73;;
1344;SDS011;15375;48.540;9.268;2023-06-24T04:57:24;9.73;;;8.73;;
1344;SDS011;15375;48.540;9.268;2023-06-24T04:59:53;9.03;;;8.20;;
1344;SDS011;15375;48.540;9.268;2023-06-24T05:02:19;9.30;;;8.37;;
1344;SDS011;15375;48.540;9.268;2023-06-24T05:04:44;9.63;;;8.23;;
1344;SDS011;15375;48.540;9.268;2023-06-24T05:07:10;9.60;;;8.27;;
1344;SDS011;15375;48.540;9.268;2023-06-24T05:09:35;9.40;;;8.00;;
1344;SDS011;15375;48.540;9.268;2023-06-24T05:12:03;8.40;;;7.50;;
1344;SDS011;15375;48.540;9.268;2023-06-24T05:14:29;8.50;;;7.70;;
1344;SDS011;15375;48.540;9.268;2023-06-24T05:16:54;9.20;;;8.40;;
1344;SDS011;15375;48.540;9.268;2023-06-24T05:19:20;9.33;;;8.40;;
1344;SDS011;15375;48.540;9.268;2023-06-24T05:21:45;11.10;;;7.80;;
1344;SDS011;15375;48.540;9.268;2023-06-24T05:24:10;8.87;;;8.03;;
1344;SDS011;15375;48.540;9.268;2023-06-24T05:26:36;7.43;;;6.83;;
1344;SDS011;15375;48.540;9.268;2023-06-24T05:29:01;9.03;;;7.40;;
1344;SDS011;15375;48.540;9.268;2023-06-24T05:31:26;9.40;;;7.53;;
1344;SDS011;15375;48.540;9.268;2023-06-24T05:33:52;6.43;;;5.83;;
1344;SDS011;15375;48.540;9.268;2023-06-24T05:36:17;9.87;;;6.27;;
1344;SDS011;15375;48.540;9.268;2023-06-24T05:38:42;8.73;;;7.83;;
1344;SDS011;15375;48.540;9.268;2023-06-24T05:41:08;7.57;;;6.43;;
1344;SDS011;15375;48.540;9.268;2023-06-24T05:43:33;7.50;;;6.70;;
1344;SDS011;15375;48.540;9.268;2023-06-24T05:45:59;9.03;;;6.20;;
1344;SDS011;15375;48.540;9.268;2023-06-24T05:48:24;6.90;;;6.20;;
1344;SDS011;15375;48.540;9.268;2023-06-24T05:50:49;7.10;;;6.40;;
1344;SDS011;15375;48.540;9.268;2023-06-24T05:53:15;7.60;;;6.70;;
1344;SDS011;15375;48.540;9.268;2023-06-24T05:55:40;7.13;;;6.53;;
1344;SDS011;15375;48.540;9.268;2023-06-24T05:58:05;6.67;;;6.13;;
1344;SDS011;15375;48.540;9.268;2023-06-24T06:00:31;7.37;;;6.77;;
1344;SDS011;15375;48.540;9.268;2023-06-24T06:02:56;7.30;;;6.70;;
1344;SDS011;15375;48.540;9.268;2023-06-24T06:05:21;8.63;;;7.97;;
1344;SDS011;15375;48.540;9.268;2023-06-24T06:07:47;8.07;;;7.37;;
1344;SDS011;15375;48.540;9.268;2023-06-24T06:10:13;7.33;;;6.73;;
1344;SDS011;15375;48.540;9.268;2023-06-24T06:12:42;7.70;;;7.00;;
1344;SDS011;15375;48.540;9.268;2023-06-24T06:15:08;7.40;;;6.70;;
1344;SDS011;15375;48.540;9.268;2023-06-24T06:17:34;8.60;;;6.60;;
1344;SDS011;15375;48.540;9.268;2023-06-24T06:19:59;7.73;;;7.13;;
1344;SDS011;15375;48.540;9.268;2023-06-24T06:22:24;7.43;;;6.83;;
1344;SDS011;15375;48.540;9.268;2023-06-24T06:24:50;7.70;;;6.97;;
1344;SDS011;15375;48.540;9.268;2023-06-24T06:27:15;7.83;;;7.30;;
1344;SDS011;15375;48.540;9.268;2023-06-24T06:29:41;7.33;;;6.80;;
1344;SDS011;15375;48.540;9.268;2023-06-24T06:32:06;7.33;;;6.83;;
1344;SDS011;15375;48.540;9.268;2023-06-24T06:34:32;7.37;;;6.77;;
1344;SDS011;15375;48.540;9.268;2023-06-24T06:36:57;7.90;;;7.20;;
1344;SDS011;15375;48.540;9.268;2023-06-24T06:39:22;8.10;;;7.37;;
1344;SDS011;15375;48.540;9.268;2023-06-24T06:41:48;7.40;;;6.80;;
1344;SDS011;15375;48.540;9.268;2023-06-24T06:44:13;7.03;;;6.47;;
1344;SDS011;15375;48.540;9.268;2023-06-24T06:46:38;6.67;;;6.27;;
1344;SDS011;15375;48.540;9.268;2023-06-24T06:49:06;8.70;;;8.00;;
1344;SDS011;15375;48.540;9.268;2023-06-24T06:51:31;7.00;;;6.40;;
1344;SDS011;15375;48.540;9.268;2023-06-24T06:53:57;8.10;;;6.90;;
1344;SDS011;15375;48.540;9.268;2023-06-24T06:56:22;8.63;;;7.33;;
1344;SDS011;15375;48.540;9.268;2023-06-24T06:58:52;7.80;;;7.20;;
1344;SDS011;15375;48.540;9.268;2023-06-24T07:01:17;6.80;;;6.40;;
1344;SDS011;15375;48.540;9.268;2023-06-24T07:03:43;7.10;;;6.60;;
1344;SDS011;15375;48.540;9.268;2023-06-24T07:06:09;6.33;;;5.83;;
1344;SDS011;15375;48.540;9.268;2023-06-24T07:08:34;6.63;;;6.07;;
1344;SDS011;15375;48.540;9.268;2023-06-24T07:11:01;6.50;;;6.00;;
1344;SDS011;15375;48.540;9.268;2023-06-24T07:13:27;6.40;;;5.90;;
1344;SDS011;15375;48.540;9.268;2023-06-24T07:15:52;6.10;;;5.60;;
1344;SDS011;15375;48.540;9.268;2023-06-24T07:18:17;7.00;;;5.83;;
1344;SDS011;15375;48.540;9.268;2023-06-24T07:20:43;6.30;;;5.80;;
1344;SDS011;15375;48.540;9.268;2023-06-24T07:23:08;5.80;;;5.20;;
1344;SDS011;15375;48.540;9.268;2023-06-24T07:25:35;5.43;;;4.93;;
1344;SDS011;15375;48.540;9.268;2023-06-24T07:28:00;6.13;;;5.73;;
1344;SDS011;15375;48.540;9.268;2023-06-24T07:30:26;5.40;;;4.90;;
1344;SDS011;15375;48.540;9.268;2023-06-24T07:32:51;4.87;;;4.47;;
1344;SDS011;15375;48.540;9.268;2023-06-24T07:35:16;5.43;;;5.00;;
1344;SDS011;15375;48.540;9.268;2023-06-24T07:37:44;6.07;;;5.53;;
1344;SDS011;15375;48.540;9.268;2023-06-24T07:40:09;5.67;;;5.20;;
1344;SDS011;15375;48.540;9.268;2023-06-24T07:42:35;5.33;;;4.93;;
1344;SDS011;15375;48.540;9.268;2023-06-24T07:45:00;5.80;;;5.30;;
1344;SDS011;15375;48.540;9.268;2023-06-24T07:47:25;6.27;;;5.67;;
1344;SDS011;15375;48.540;9.268;2023-06-24T07:49:51;6.17;;;5.10;;
1344;SDS011;15375;48.540;9.268;2023-06-24T07:52:17;5.97;;;5.43;;
1344;SDS011;15375;48.540;9.268;2023-06-24T07:54:42;6.13;;;5.70;;
1344;SDS011;15375;48.540;9.268;2023-06-24T07:57:08;5.43;;;4.97;;
1344;SDS011;15375;48.540;9.268;2023-06-24T07:59:33;6.13;;;5.57;;
1344;SDS011;15375;48.540;9.268;2023-06-24T08:01:58;6.50;;;5.60;;
1344;SDS011;15375;48.540;9.268;2023-06-24T08:04:24;5.67;;;5.17;;
1344;SDS011;15375;48.540;9.268;2023-06-24T08:06:49;5.87;;;5.37;;
1344;SDS011;15375;48.540;9.268;2023-06-24T08:09:15;5.77;;;5.27;;
1344;SDS011;15375;48.540;9.268;2023-06-24T08:11:42;6.43;;;5.37;;
1344;SDS011;15375;48.540;9.268;2023-06-24T08:14:08;5.70;;;5.20;;
1344;SDS011;15375;48.540;9.268;2023-06-24T08:16:33;6.37;;;5.87;;
1344;SDS011;15375;48.540;9.268;2023-06-24T08:18:58;5.83;;;5.00;;
1344;SDS011;15375;48.540;9.268;2023-06-24T08:21:24;6.30;;;5.70;;
1344;SDS011;15375;48.540;9.268;2023-06-24T08:23:49;5.10;;;4.70;;
1344;SDS011;15375;48.540;9.268;2023-06-24T08:26:15;6.03;;;5.43;;
1344;SDS011;15375;48.540;9.268;2023-06-24T08:28:41;5.33;;;4.93;;
1344;SDS011;15375;48.540;9.268;2023-06-24T08:31:06;4.70;;;4.37;;
1344;SDS011;15375;48.540;9.268;2023-06-24T08:33:31;5.60;;;5.10;;
1344;SDS011;15375;48.540;9.268;2023-06-24T08:35:57;5.90;;;5.40;;
1344;SDS011;15375;48.540;9.268;2023-06-24T08:38:22;5.83;;;5.33;;
1344;SDS011;15375;48.540;9.268;2023-06-24T08:40:47;5.50;;;5.10;;
1344;SDS011;15375;48.540;9.268;2023-06-24T08:43:14;5.53;;;5.03;;
1344;SDS011;15375;48.540;9.268;2023-06-24T08:45:40;4.70;;;4.30;;
1344;SDS011;15375;48.540;9.268;2023-06-24T08:48:05;4.53;;;4.20;;
1344;SDS011;15375;48.540;9.268;2023-06-24T08:50:33;6.17;;;5.67;;
1344;SDS011;15375;48.540;9.268;2023-06-24T08:53:02;4.23;;;3.93;;
1344;SDS011;15375;48.540;9.268;2023-06-24T08:55:32;5.70;;;5.20;;
1344;SDS011;15375;48.540;9.268;2023-06-24T08:58:04;4.90;;;4.50;;
1344;SDS011;15375;48.540;9.268;2023-06-24T09:00:30;4.53;;;4.13;;
1344;SDS011;15375;48.540;9.268;2023-06-24T09:02:55;4.30;;;4.00;;
1344;SDS011;15375;48.540;9.268;2023-06-24T09:05:21;5.00;;;4.60;;
1344;SDS011;15375;48.540;9.268;2023-06-24T09:07:47;4.80;;;4.40;;
1344;SDS011;15375;48.540;9.268;2023-06-24T09:10:28;6.03;;;5.43;;
1344;SDS011;15375;48.540;9.268;2023-06-24T09:12:57;5.90;;;4.87;;
1344;SDS011;15375;48.540;9.268;2023-06-24T09:15:23;6.70;;;6.10;;
1344;SDS011;15375;48.540;9.268;2023-06-24T09:17:49;4.97;;;4.57;;
1344;SDS011;15375;48.540;9.268;2023-06-24T09:20:14;5.17;;;4.70;;
1344;SDS011;15375;48.540;9.268;2023-06-24T09:22:45;6.27;;;5.03;;
1344;SDS011;15375;48.540;9.268;2023-06-24T09:25:13;5.23;;;4.40;;
1344;SDS011;15375;48.540;9.268;2023-06-24T09:27:43;4.73;;;4.43;;
1344;SDS011;15375;48.540;9.268;2023-06-24T09:30:19;5.07;;;4.63;;
1344;SDS011;15375;48.540;9.268;2023-06-24T09:32:45;5.23;;;4.83;;
1344;SDS011;15375;48.540;9.268;2023-06-24T09:35:12;5.53;;;5.03;;
1344;SDS011;15375;48.540;9.268;2023-06-24T09:37:38;4.90;;;4.50;;
1344;SDS011;15375;48.540;9.268;2023-06-24T09:40:03;4.90;;;4.50;;
1344;SDS011;15375;48.540;9.268;2023-06-24T09:42:31;5.23;;;4.67;;
1344;SDS011;15375;48.540;9.268;2023-06-24T09:44:56;6.00;;;5.50;;
1344;SDS011;15375;48.540;9.268;2023-06-24T09:47:22;4.73;;;4.33;;
1344;SDS011;15375;48.540;9.268;2023-06-24T09:49:52;4.70;;;4.27;;
1344;SDS011;15375;48.540;9.268;2023-06-24T09:52:19;5.77;;;5.27;;
1344;SDS011;15375;48.540;9.268;2023-06-24T09:54:46;7.40;;;4.53;;
1344;SDS011;15375;48.540;9.268;2023-06-24T09:57:15;5.20;;;4.70;;
1344;SDS011;15375;48.540;9.268;2023-06-24T09:59:48;4.50;;;4.10;;
1344;SDS011;15375;48.540;9.268;2023-06-24T10:02:14;5.77;;;5.00;;
1344;SDS011;15375;48.540;9.268;2023-06-24T10:04:41;4.67;;;4.27;;
1344;SDS011;15375;48.540;9.268;2023-06-24T10:07:07;4.30;;;3.90;;
1344;SDS011;15375;48.540;9.268;2023-06-24T10:09:32;5.07;;;4.57;;
1344;SDS011;15375;48.540;9.268;2023-06-24T10:11:58;4.50;;;4.20;;
1344;SDS011;15375;48.540;9.268;2023-06-24T10:14:23;4.53;;;4.13;;
1344;SDS011;15375;48.540;9.268;2023-06-24T10:16:49;5.23;;;4.70;;
1344;SDS011;15375;48.540;9.268;2023-06-24T10:19:21;4.53;;;3.80;;
1344;SDS011;15375;48.540;9.268;2023-06-24T10:21:53;19.30;;;5.50;;
1344;SDS011;15375;48.540;9.268;2023-06-24T10:24:29;5.50;;;4.50;;
1344;SDS011;15375;48.540;9.268;2023-06-24T10:27:05;3.87;;;3.47;;
1344;SDS011;15375;48.540;9.268;2023-06-24T10:29:33;4.87;;;3.93;;
1344;SDS011;15375;48.540;9.268;2023-06-24T10:32:09;4.60;;;4.20;;
1344;SDS011;15375;48.540;9.268;2023-06-24T10:37:19;3.27;;;3.07;;
1344;SDS011;15375;48.540;9.268;2023-06-24T10:39:47;3.60;;;3.30;;
1344;SDS011;15375;48.540;9.268;2023-06-24T10:42:39;3.93;;;3.43;;
1344;SDS011;15375;48.540;9.268;2023-06-24T10:47:44;4.87;;;4.40;;
1344;SDS011;15375;48.540;9.268;2023-06-24T10:50:21;3.80;;;3.50;;
1344;SDS011;15375;48.540;9.268;2023-06-24T10:52:49;4.90;;;4.40;;
1344;SDS011;15375;48.540;9.268;2023-06-24T10:55:22;3.90;;;3.60;;
1344;SDS011;15375;48.540;9.268;2023-06-24T10:57:51;4.20;;;3.90;;
1344;SDS011;15375;48.540;9.268;2023-06-24T11:00:16;3.70;;;3.40;;
1344;SDS011;15375;48.540;9.268;2023-06-24T11:02:42;4.30;;;3.90;;
1344;SDS011;15375;48.540;9.268;2023-06-24T11:05:09;3.77;;;3.47;;
1344;SDS011;15375;48.540;9.268;2023-06-24T11:07:35;4.57;;;4.17;;
1344;SDS011;15375;48.540;9.268;2023-06-24T11:10:10;4.20;;;3.90;;
1344;SDS011;15375;48.540;9.268;2023-06-24T11:12:37;3.80;;;3.30;;
1344;SDS011;15375;48.540;9.268;2023-06-24T11:15:04;4.60;;;3.60;;
1344;SDS011;15375;48.540;9.268;2023-06-24T11:17:32;4.00;;;3.70;;
1344;SDS011;15375;48.540;9.268;2023-06-24T11:19:58;3.63;;;3.33;;
1344;SDS011;15375;48.540;9.268;2023-06-24T11:22:24;4.10;;;3.80;;
1344;SDS011;15375;48.540;9.268;2023-06-24T11:24:50;4.00;;;3.70;;
1344;SDS011;15375;48.540;9.268;2023-06-24T11:27:16;3.80;;;3.50;;
1344;SDS011;15375;48.540;9.268;2023-06-24T11:29:41;4.10;;;3.80;;
1344;SDS011;15375;48.540;9.268;2023-06-24T11:32:07;3.97;;;3.67;;
1344;SDS011;15375;48.540;9.268;2023-06-24T11:34:34;3.63;;;3.33;;
1344;SDS011;15375;48.540;9.268;2023-06-24T11:42:29;4.07;;;3.70;;
1344;SDS011;15375;48.540;9.268;2023-06-24T11:44:59;4.43;;;3.73;;
1344;SDS011;15375;48.540;9.268;2023-06-24T11:47:25;3.97;;;3.67;;
1344;SDS011;15375;48.540;9.268;2023-06-24T11:49:51;4.87;;;3.33;;
1344;SDS011;15375;48.540;9.268;2023-06-24T11:52:18;4.63;;;4.23;;
1344;SDS011;15375;48.540;9.268;2023-06-24T11:54:44;4.30;;;3.80;;
1344;SDS011;15375;48.540;9.268;2023-06-24T11:57:09;3.83;;;3.53;;
1344;SDS011;15375;48.540;9.268;2023-06-24T11:59:35;4.33;;;4.03;;
1344;SDS011;15375;48.540;9.268;2023-06-24T12:02:01;4.10;;;3.70;;
1344;SDS011;15375;48.540;9.268;2023-06-24T12:04:31;4.10;;;3.80;;
1344;SDS011;15375;48.540;9.268;2023-06-24T12:06:58;5.07;;;4.20;;
1344;SDS011;15375;48.540;9.268;2023-06-24T12:09:24;4.40;;;4.00;;
1344;SDS011;15375;48.540;9.268;2023-06-24T12:11:50;3.90;;;3.60;;
1344;SDS011;15375;48.540;9.268;2023-06-24T12:14:16;4.47;;;4.17;;
1344;SDS011;15375;48.540;9.268;2023-06-24T12:16:41;4.23;;;3.93;;
1344;SDS011;15375;48.540;9.268;2023-06-24T12:19:07;4.33;;;4.03;;
1344;SDS011;15375;48.540;9.268;2023-06-24T12:21:33;3.87;;;3.53;;
1344;SDS011;15375;48.540;9.268;2023-06-24T12:23:59;4.27;;;3.97;;
1344;SDS011;15375;48.540;9.268;2023-06-24T12:26:24;4.37;;;4.07;;
1344;SDS011;15375;48.540;9.268;2023-06-24T12:28:50;5.00;;;4.50;;
1344;SDS011;15375;48.540;9.268;2023-06-24T12:31:15;4.50;;;4.10;;
1344;SDS011;15375;48.540;9.268;2023-06-24T12:33:41;4.40;;;3.87;;
1344;SDS011;15375;48.540;9.268;2023-06-24T12:36:06;4.40;;;4.00;;
1344;SDS011;15375;48.540;9.268;2023-06-24T12:38:32;3.47;;;3.27;;
1344;SDS011;15375;48.540;9.268;2023-06-24T12:40:57;4.23;;;3.90;;
1344;SDS011;15375;48.540;9.268;2023-06-24T12:43:23;3.97;;;3.67;;
1344;SDS011;15375;48.540;9.268;2023-06-24T12:45:48;4.47;;;4.07;;
1344;SDS011;15375;48.540;9.268;2023-06-24T12:48:15;3.90;;;3.60;;
1344;SDS011;15375;48.540;9.268;2023-06-24T12:50:41;3.73;;;3.43;;
1344;SDS011;15375;48.540;9.268;2023-06-24T12:53:09;3.63;;;3.37;;
1344;SDS011;15375;48.540;9.268;2023-06-24T12:55:39;3.80;;;3.50;;
1344;SDS011;15375;48.540;9.268;2023-06-24T12:58:05;5.57;;;4.20;;
1344;SDS011;15375;48.540;9.268;2023-06-24T13:00:30;6.20;;;4.23;;
1344;SDS011;15375;48.540;9.268;2023-06-24T13:02:55;4.40;;;4.10;;
1344;SDS011;15375;48.540;9.268;2023-06-24T13:05:21;3.73;;;3.43;;
1344;SDS011;15375;48.540;9.268;2023-06-24T13:07:47;3.90;;;3.60;;
1344;SDS011;15375;48.540;9.268;2023-06-24T13:10:12;4.70;;;3.73;;
1344;SDS011;15375;48.540;9.268;2023-06-24T13:12:37;4.40;;;4.00;;
1344;SDS011;15375;48.540;9.268;2023-06-24T13:15:03;3.73;;;3.43;;
1344;SDS011;15375;48.540;9.268;2023-06-24T13:17:32;3.97;;;3.60;;
1344;SDS011;15375;48.540;9.268;2023-06-24T13:19:57;4.67;;;4.37;;
1344;SDS011;15375;48.540;9.268;2023-06-24T13:22:23;4.60;;;4.20;;
1344;SDS011;15375;48.540;9.268;2023-06-24T13:24:49;4.73;;;4.33;;
1344;SDS011;15375;48.540;9.268;2023-06-24T13:27:14;4.87;;;3.77;;
1344;SDS011;15375;48.540;9.268;2023-06-24T13:29:40;3.83;;;3.57;;
1344;SDS011;15375;48.540;9.268;2023-06-24T13:32:06;5.40;;;4.80;;
1344;SDS011;15375;48.540;9.268;2023-06-24T13:34:31;4.60;;;4.27;;
1344;SDS011;15375;48.540;9.268;2023-06-24T13:36:57;3.50;;;3.20;;
1344;SDS011;15375;48.540;9.268;2023-06-24T13:39:22;3.77;;;3.47;;
1344;SDS011;15375;48.540;9.268;2023-06-24T13:41:49;5.00;;;3.87;;
1344;SDS011;15375;48.540;9.268;2023-06-24T13:44:14;4.30;;;3.90;;
1344;SDS011;15375;48.540;9.268;2023-06-24T13:46:40;4.33;;;4.03;;
1344;SDS011;15375;48.540;9.268;2023-06-24T13:49:06;3.40;;;3.10;;
1344;SDS011;15375;48.540;9.268;2023-06-24T13:51:31;3.77;;;3.40;;
1344;SDS011;15375;48.540;9.268;2023-06-24T13:53:56;4.30;;;3.90;;
1344;SDS011;15375;48.540;9.268;2023-06-24T13:56:22;4.10;;;3.80;;
1344;SDS011;15375;48.540;9.268;2023-06-24T13:58:49;6.10;;;3.70;;
1344;SDS011;15375;48.540;9.268;2023-06-24T14:01:16;4.23;;;3.93;;
1344;SDS011;15375;48.540;9.268;2023-06-24T14:03:42;4.40;;;4.00;;
1344;SDS011;15375;48.540;9.268;2023-06-24T14:06:08;5.20;;;4.70;;
1344;SDS011;15375;48.540;9.268;2023-06-24T14:08:34;4.00;;;3.70;;
1344;SDS011;15375;48.540;9.268;2023-06-24T14:11:00;4.10;;;3.80;;
1344;SDS011;15375;48.540;9.268;2023-06-24T14:13:26;4.30;;;3.90;;
1344;SDS011;15375;48.540;9.268;2023-06-24T14:15:53;4.63;;;4.23;;
1344;SDS011;15375;48.540;9.268;2023-06-24T14:18:19;4.73;;;4.30;;
1344;SDS011;15375;48.540;9.268;2023-06-24T14:20:44;4.57;;;4.27;;
1344;SDS011;15375;48.540;9.268;2023-06-24T14:23:10;4.03;;;3.70;;
1344;SDS011;15375;48.540;9.268;2023-06-24T14:25:35;4.23;;;3.83;;
1344;SDS011;15375;48.540;9.268;2023-06-24T14:28:02;4.00;;;3.70;;
1344;SDS011;15375;48.540;9.268;2023-06-24T14:30:28;4.70;;;4.30;;
1344;SDS011;15375;48.540;9.268;2023-06-24T14:32:54;5.00;;;4.60;;
1344;SDS011;15375;48.540;9.268;2023-06-24T14:35:19;4.53;;;3.70;;
1344;SDS011;15375;48.540;9.268;2023-06-24T14:37:44;4.27;;;3.97;;
1344;SDS011;15375;48.540;9.268;2023-06-24T14:40:10;4.90;;;4.50;;
1344;SDS011;15375;48.540;9.268;2023-06-24T14:42:35;4.03;;;3.73;;
1344;SDS011;15375;48.540;9.268;2023-06-24T14:45:01;4.33;;;3.93;;
1344;SDS011;15375;48.540;9.268;2023-06-24T14:47:27;4.50;;;4.20;;
1344;SDS011;15375;48.540;9.268;2023-06-24T14:49:52;7.90;;;4.60;;
1344;SDS011;15375;48.540;9.268;2023-06-24T14:52:18;4.60;;;4.20;;
1344;SDS011;15375;48.540;9.268;2023-06-24T14:54:43;4.17;;;3.80;;
1344;SDS011;15375;48.540;9.268;2023-06-24T14:57:08;4.20;;;3.90;;
1344;SDS011;15375;48.540;9.268;2023-06-24T14:59:35;4.83;;;4.30;;
1344;SDS011;15375;48.540;9.268;2023-06-24T15:02:00;6.00;;;4.23;;
1344;SDS011;15375;48.540;9.268;2023-06-24T15:04:26;4.50;;;4.10;;
1344;SDS011;15375;48.540;9.268;2023-06-24T15:06:51;4.70;;;4.30;;
1344;SDS011;15375;48.540;9.268;2023-06-24T15:09:17;3.97;;;3.67;;
1344;SDS011;15375;48.540;9.268;2023-06-24T15:11:42;4.07;;;3.70;;
1344;SDS011;15375;48.540;9.268;2023-06-24T15:14:07;4.70;;;4.30;;
1344;SDS011;15375;48.540;9.268;2023-06-24T15:16:33;4.80;;;4.40;;